createdAt,value
2018-09-19T00:00:17.943Z,69.26
2018-09-19T00:02:58.455Z,69.60
2018-09-19T00:05:28.226Z,69.89
2018-09-19T00:07:58.352Z,70.42
2018-09-19T00:10:28.188Z,70.23
2018-09-19T00:12:58.797Z,70.27
2018-09-19T00:15:28.476Z,70.62
2018-09-19T00:18:02.233Z,70.40
2018-09-19T00:20:32.337Z,69.68
2018-09-19T00:23:02.333Z,69.64
2018-09-19T00:25:31.928Z,70.21
2018-09-19T00:28:02.815Z,70.20
2018-09-19T00:30:32.453Z,70.51
2018-09-19T00:33:02.013Z,71.03
2018-09-19T00:35:32.022Z,70.92
2018-09-19T00:38:01.572Z,71.47
2018-09-19T00:40:32.274Z,71.44
2018-09-19T00:43:03.144Z,71.33
2018-09-19T00:45:32.767Z,71.87
2018-09-19T00:48:02.245Z,71.82
2018-09-19T00:50:31.722Z,71.99
2018-09-19T00:53:01.500Z,72.06
2018-09-19T00:55:31.139Z,72.68
2018-09-19T00:58:02.090Z,72.69
2018-09-19T01:00:31.751Z,73.52
2018-09-19T01:03:01.413Z,73.12
2018-09-19T01:05:30.924Z,73.51
2018-09-19T01:08:00.810Z,73.78
2018-09-19T01:10:30.318Z,74.25
2018-09-19T01:12:59.817Z,74.60
2018-09-19T01:15:29.641Z,74.61
2018-09-19T01:17:59.339Z,74.25
2018-09-19T01:20:28.961Z,74.28
2018-09-19T01:22:59.082Z,74.71
2018-09-19T01:25:28.498Z,74.95
2018-09-19T01:27:58.033Z,74.98
2018-09-19T01:30:27.943Z,75.26
2018-09-19T01:32:58.249Z,75.44
2018-09-19T01:35:27.728Z,75.83
2018-09-19T01:37:57.260Z,75.62
2018-09-19T01:40:26.775Z,75.75
2018-09-19T01:42:57.522Z,75.89
2018-09-19T01:45:27.272Z,75.85
2018-09-19T01:47:57.018Z,75.96
2018-09-19T01:50:26.900Z,76.04
2018-09-19T01:52:56.465Z,75.44
2018-09-19T01:55:26.108Z,75.45
2018-09-19T01:57:57.180Z,75.91
2018-09-19T02:00:26.940Z,75.32
2018-09-19T02:02:56.369Z,75.71
2018-09-19T02:05:25.985Z,75.56
2018-09-19T02:07:55.723Z,75.65
2018-09-19T02:10:25.302Z,75.88
2018-09-19T02:12:54.834Z,76.03
2018-09-19T02:15:24.814Z,76.53
2018-09-19T02:17:54.553Z,76.68
2018-09-19T02:20:24.169Z,76.83
2018-09-19T02:22:53.765Z,77.18
2018-09-19T02:25:23.353Z,77.22
2018-09-19T02:27:52.891Z,76.89
2018-09-19T02:30:29.853Z,77.25
2018-09-19T02:32:59.356Z,76.66
2018-09-19T02:35:28.959Z,76.53
2018-09-19T02:37:58.571Z,76.50
2018-09-19T02:40:28.375Z,76.52
2018-09-19T02:42:58.011Z,76.37
2018-09-19T02:45:27.726Z,76.70
2018-09-19T02:47:57.229Z,76.16
2018-09-19T02:50:26.816Z,76.88
2018-09-19T02:52:57.544Z,76.85
2018-09-19T02:55:33.192Z,76.61
2018-09-19T02:58:02.704Z,77.04
2018-09-19T03:00:32.231Z,76.61
2018-09-19T03:03:01.767Z,76.92
2018-09-19T03:05:31.601Z,76.96
2018-09-19T03:08:01.034Z,76.77
2018-09-19T03:10:30.689Z,76.59
2018-09-19T03:13:00.207Z,76.16
2018-09-19T03:15:32.206Z,76.04
2018-09-19T03:18:01.681Z,75.68
2018-09-19T03:20:31.289Z,75.41
2018-09-19T03:23:00.789Z,75.08
2018-09-19T03:25:32.813Z,74.91
2018-09-19T03:28:02.301Z,74.74
2018-09-19T03:30:31.742Z,74.94
2018-09-19T03:33:01.845Z,74.52
2018-09-19T03:35:31.443Z,75.00
2018-09-19T03:38:00.960Z,75.26
2018-09-19T03:40:32.268Z,75.91
2018-09-19T03:43:01.811Z,76.60
2018-09-19T03:45:31.413Z,76.58
2018-09-19T03:48:01.150Z,76.44
2018-09-19T03:50:34.225Z,76.98
2018-09-19T03:53:03.761Z,76.08
2018-09-19T03:55:33.278Z,76.87
2018-09-19T03:58:03.063Z,76.75
2018-09-19T04:00:33.042Z,77.37
2018-09-19T04:03:02.763Z,77.46
2018-09-19T04:05:32.438Z,77.83
2018-09-19T04:08:02.126Z,77.51
2018-09-19T04:10:31.684Z,78.61
2018-09-19T04:13:01.181Z,79.06
2018-09-19T04:15:31.113Z,79.50
2018-09-19T04:18:00.836Z,79.13
2018-09-19T04:20:32.416Z,78.97
2018-09-19T04:23:02.239Z,78.52
2018-09-19T04:25:32.119Z,78.33
2018-09-19T04:28:01.906Z,78.54
2018-09-19T04:30:31.986Z,78.49
2018-09-19T04:33:01.522Z,78.37
2018-09-19T04:35:38.120Z,78.42
2018-09-19T04:38:07.611Z,77.68
2018-09-19T04:40:37.143Z,78.28
2018-09-19T04:43:07.158Z,78.72
2018-09-19T04:45:42.052Z,78.97
2018-09-19T04:48:13.998Z,79.63
2018-09-19T04:50:52.866Z,79.68
2018-09-19T04:53:22.824Z,79.73
2018-09-19T04:55:52.454Z,80.17
2018-09-19T04:58:22.768Z,80.51
2018-09-19T05:00:52.549Z,80.71
2018-09-19T05:03:24.759Z,80.82
2018-09-19T05:05:54.595Z,81.07
2018-09-19T05:08:24.119Z,81.31
2018-09-19T05:10:53.618Z,81.19
2018-09-19T05:13:23.430Z,81.42
2018-09-19T05:15:52.980Z,81.36
2018-09-19T05:18:22.647Z,81.59
2018-09-19T05:20:52.175Z,82.25
2018-09-19T05:23:21.901Z,82.00
2018-09-19T05:25:53.066Z,81.62
2018-09-19T05:28:23.388Z,81.99
2018-09-19T05:30:53.559Z,81.78
2018-09-19T05:33:23.164Z,81.87
2018-09-19T05:35:52.781Z,81.71
2018-09-19T05:38:25.136Z,81.66
2018-09-19T05:40:54.717Z,82.09
2018-09-19T05:43:24.289Z,82.04
2018-09-19T05:45:53.959Z,81.74
2018-09-19T05:48:23.774Z,81.47
2018-09-19T05:50:53.630Z,81.81
2018-09-19T05:53:23.283Z,81.13
2018-09-19T05:55:53.106Z,81.24
2018-09-19T05:58:22.722Z,80.87
2018-09-19T06:00:52.273Z,81.02
2018-09-19T06:03:23.160Z,80.49
2018-09-19T06:05:52.844Z,80.30
2018-09-19T06:08:22.372Z,79.52
2018-09-19T06:10:51.879Z,78.83
2018-09-19T06:13:21.639Z,78.63
2018-09-19T06:15:51.156Z,78.09
2018-09-19T06:18:20.721Z,77.72
2018-09-19T06:20:50.277Z,77.35
2018-09-19T06:23:22.071Z,76.77
2018-09-19T06:25:51.673Z,76.15
2018-09-19T06:28:21.105Z,75.30
2018-09-19T06:30:50.556Z,74.26
2018-09-19T06:33:20.375Z,74.29
2018-09-19T06:35:49.941Z,73.68
2018-09-19T06:38:19.659Z,74.04
2018-09-19T06:40:49.196Z,73.10
2018-09-19T06:43:19.135Z,72.48
2018-09-19T06:45:48.672Z,72.24
2018-09-19T06:48:18.475Z,71.48
2018-09-19T06:50:47.926Z,70.71
2018-09-19T06:53:17.619Z,70.37
2018-09-19T06:55:47.468Z,70.20
2018-09-19T06:58:56.902Z,70.01
2018-09-19T07:01:26.499Z,68.92
2018-09-19T07:03:56.259Z,67.94
2018-09-19T07:06:25.799Z,67.82
2018-09-19T07:08:55.279Z,67.47
2018-09-19T07:11:24.729Z,67.09
2018-09-19T07:13:54.801Z,66.50
2018-09-19T07:16:24.472Z,65.10
2018-09-19T07:18:54.016Z,64.33
2018-09-19T07:21:24.836Z,64.22
2018-09-19T07:23:54.424Z,61.31
2018-09-19T07:26:23.753Z,59.23
2018-09-19T07:28:53.172Z,55.76
2018-09-19T07:31:22.890Z,54.94
2018-09-19T07:33:52.383Z,53.10
2018-09-19T07:36:21.843Z,50.60
2018-09-19T07:38:51.484Z,50.05
2018-09-19T07:41:21.387Z,49.04
2018-09-19T07:43:50.933Z,48.10
2018-09-19T07:46:20.462Z,48.18
2018-09-19T07:48:50.007Z,47.23
2018-09-19T07:51:19.498Z,45.38
2018-09-19T07:53:48.992Z,44.56
2018-09-19T07:56:18.534Z,44.10
2018-09-19T07:58:47.981Z,44.53
2018-09-19T08:01:17.515Z,43.78
2018-09-19T08:03:47.407Z,42.29
2018-09-19T08:06:17.090Z,42.11
2018-09-19T08:08:46.662Z,42.41
2018-09-19T08:11:16.210Z,41.83
2018-09-19T08:13:46.092Z,41.54
2018-09-19T08:16:15.595Z,40.25
2018-09-19T08:18:45.133Z,40.31
2018-09-19T08:21:14.654Z,40.51
2018-09-19T08:23:44.742Z,41.08
2018-09-19T08:26:14.209Z,41.30
2018-09-19T08:28:43.690Z,39.52
2018-09-19T08:31:13.313Z,39.71
2018-09-19T08:33:42.889Z,39.00
2018-09-19T08:36:12.604Z,38.99
2018-09-19T08:38:42.391Z,37.17
2018-09-19T08:41:11.824Z,36.85
2018-09-19T08:43:41.353Z,36.99
2018-09-19T08:46:11.166Z,35.47
2018-09-19T08:48:40.783Z,34.60
2018-09-19T08:51:10.245Z,34.53
2018-09-19T08:53:39.753Z,34.71
2018-09-19T08:56:09.639Z,33.70
2018-09-19T08:58:40.222Z,31.59
2018-09-19T09:01:09.960Z,32.50
2018-09-19T09:03:39.993Z,31.14
2018-09-19T09:06:09.533Z,31.43
2018-09-19T09:08:39.070Z,30.11
2018-09-19T09:11:09.350Z,30.22
2018-09-19T09:13:38.879Z,29.14
2018-09-19T09:16:08.764Z,29.20
2018-09-19T09:18:39.725Z,28.34
2018-09-19T09:21:09.380Z,27.66
2018-09-19T09:23:38.862Z,27.04
2018-09-19T09:26:09.798Z,28.46
2018-09-19T09:28:39.399Z,29.09
2018-09-19T09:31:09.278Z,30.70
2018-09-19T09:33:38.808Z,30.56
2018-09-19T09:36:09.656Z,31.64
2018-09-19T09:38:39.523Z,33.16
2018-09-19T09:41:09.371Z,33.80
2018-09-19T09:43:38.952Z,32.27
2018-09-19T09:46:08.788Z,34.23
2018-09-19T09:48:38.405Z,33.77
2018-09-19T09:51:08.213Z,33.96
2018-09-19T09:53:37.945Z,32.71
2018-09-19T09:56:07.566Z,33.17
2018-09-19T09:58:37.039Z,32.33
2018-09-19T10:01:07.862Z,31.90
2018-09-19T10:03:37.494Z,33.05
2018-09-19T10:06:07.073Z,31.82
2018-09-19T10:08:36.547Z,32.43
2018-09-19T10:11:07.731Z,33.46
2018-09-19T10:13:37.349Z,35.58
2018-09-19T10:16:08.413Z,34.56
2018-09-19T10:18:37.986Z,35.75
2018-09-19T10:21:07.885Z,33.23
2018-09-19T10:23:37.493Z,33.50
2018-09-19T10:26:07.387Z,32.86
2018-09-19T10:28:36.891Z,33.91
2018-09-19T10:31:06.544Z,33.42
2018-09-19T10:33:36.053Z,33.54
2018-09-19T10:36:09.642Z,33.70
2018-09-19T10:38:39.216Z,36.49
2018-09-19T10:41:09.169Z,34.60
2018-09-19T10:43:39.922Z,36.42
2018-09-19T10:46:10.025Z,34.39
2018-09-19T10:48:54.105Z,39.14
2018-09-19T10:51:24.635Z,37.03
2018-09-19T10:53:54.466Z,36.55
2018-09-19T10:56:24.064Z,36.27
2018-09-19T10:58:53.569Z,35.78
2018-09-19T11:01:24.200Z,36.36
2018-09-19T11:03:56.256Z,38.35
2018-09-19T11:06:25.814Z,38.77
2018-09-19T11:08:55.303Z,38.32
2018-09-19T11:11:24.874Z,37.85
2018-09-19T11:13:54.651Z,36.31
2018-09-19T11:16:24.348Z,37.20
2018-09-19T11:18:55.182Z,37.81
2018-09-19T11:21:24.642Z,36.63
2018-09-19T11:23:54.116Z,36.26
2018-09-19T11:26:23.617Z,38.77
2018-09-19T11:28:53.408Z,37.99
2018-09-19T11:31:22.836Z,37.03
2018-09-19T11:33:52.345Z,37.44
2018-09-19T11:36:22.127Z,36.73
2018-09-19T11:38:51.840Z,37.06
2018-09-19T11:41:21.346Z,36.39
2018-09-19T11:43:55.902Z,35.92
2018-09-19T11:46:28.194Z,35.78
2018-09-19T11:48:57.899Z,35.47
2018-09-19T11:51:27.670Z,36.46
2018-09-19T11:53:57.233Z,36.53
2018-09-19T11:56:26.850Z,36.10
2018-09-19T11:58:57.907Z,37.03
2018-09-19T12:01:27.580Z,35.50
2018-09-19T12:03:57.338Z,35.46
2018-09-19T12:06:27.138Z,34.49
2018-09-19T12:08:56.704Z,35.60
2018-09-19T12:11:26.125Z,35.19
2018-09-19T12:13:55.960Z,36.14
2018-09-19T12:16:25.456Z,35.82
2018-09-19T12:18:54.902Z,35.90
2018-09-19T12:21:24.481Z,35.81
2018-09-19T12:23:54.097Z,35.23
2018-09-19T12:26:23.655Z,34.62
2018-09-19T12:28:53.530Z,34.16
2018-09-19T12:31:23.185Z,34.54
2018-09-19T12:33:52.819Z,34.27
2018-09-19T12:36:23.135Z,33.80
2018-09-19T12:38:52.639Z,33.69
2018-09-19T12:41:22.194Z,33.60
2018-09-19T12:43:54.132Z,33.56
2018-09-19T12:46:23.934Z,34.96
2018-09-19T12:48:53.613Z,34.36
2018-09-19T12:51:23.085Z,34.18
2018-09-19T12:53:53.851Z,35.31
2018-09-19T12:56:23.282Z,34.56
2018-09-19T12:58:52.896Z,33.28
2018-09-19T13:01:22.412Z,33.27
2018-09-19T13:03:52.203Z,33.77
2018-09-19T13:06:21.797Z,30.70
2018-09-19T13:08:51.889Z,30.26
2018-09-19T13:11:21.477Z,30.01
2018-09-19T13:13:50.861Z,29.86
2018-09-19T13:16:20.385Z,31.47
2018-09-19T13:18:49.938Z,31.86
2018-09-19T13:21:19.805Z,31.34
2018-09-19T13:23:49.686Z,32.14
2018-09-19T13:26:20.128Z,31.18
2018-09-19T13:28:49.768Z,32.15
2018-09-19T13:31:21.164Z,31.92
2018-09-19T13:33:51.327Z,32.18
2018-09-19T13:36:20.915Z,32.03
2018-09-19T13:38:50.680Z,29.91
2018-09-19T13:41:20.450Z,29.12
2018-09-19T13:43:50.001Z,30.01
2018-09-19T13:46:19.900Z,32.04
2018-09-19T13:48:56.571Z,29.93
2018-09-19T13:51:26.362Z,30.90
2018-09-19T13:53:58.313Z,29.72
2018-09-19T13:56:27.955Z,28.19
2018-09-19T13:58:57.751Z,26.78
2018-09-19T14:01:27.255Z,26.36
2018-09-19T14:03:56.837Z,24.98
2018-09-19T14:06:26.758Z,24.57
2018-09-19T14:08:57.675Z,24.70
2018-09-19T14:11:27.281Z,23.12
2018-09-19T14:13:57.005Z,21.76
2018-09-19T14:16:26.536Z,20.67
2018-09-19T14:18:56.511Z,21.63
2018-09-19T14:21:26.327Z,23.23
2018-09-19T14:23:55.822Z,26.17
2018-09-19T14:26:27.335Z,27.88
2018-09-19T14:28:57.167Z,29.54
2018-09-19T14:31:27.397Z,30.12
2018-09-19T14:33:56.961Z,31.15
2018-09-19T14:36:26.798Z,28.48
2018-09-19T14:38:56.665Z,26.63
2018-09-19T14:44:32.882Z,25.73
2018-09-19T14:47:02.514Z,25.25
2018-09-19T14:49:32.218Z,25.31
2018-09-19T14:52:01.722Z,23.96
2018-09-19T14:54:32.021Z,23.00
2018-09-19T14:57:01.901Z,22.16
2018-09-19T14:59:31.470Z,19.31
2018-09-19T15:02:01.276Z,18.91
2018-09-19T15:04:30.897Z,18.76
2018-09-19T15:07:00.803Z,18.04
2018-09-19T15:09:30.340Z,17.76
2018-09-19T15:11:59.856Z,18.10
2018-09-19T15:14:29.460Z,19.29
2018-09-19T15:16:59.451Z,19.77
2018-09-19T15:19:29.775Z,19.67
2018-09-19T15:21:59.388Z,20.93
2018-09-19T15:24:29.640Z,18.68
2018-09-19T15:26:59.107Z,19.04
2018-09-19T15:29:29.943Z,18.93
2018-09-19T15:31:59.389Z,20.81
2018-09-19T15:34:30.083Z,20.88
2018-09-19T15:37:07.938Z,21.04
2018-09-19T15:39:37.568Z,21.55
2018-09-19T15:42:07.125Z,22.61
2018-09-19T15:44:36.745Z,25.31
2018-09-19T15:47:06.344Z,28.16
2018-09-19T15:49:37.655Z,29.65
2018-09-19T15:52:07.636Z,29.42
2018-09-19T15:54:37.409Z,30.36
2018-09-19T15:57:06.967Z,32.50
2018-09-19T15:59:36.454Z,34.12
2018-09-19T16:02:07.335Z,33.96
2018-09-19T16:04:36.800Z,34.09
2018-09-19T16:07:06.578Z,34.08
2018-09-19T16:09:36.197Z,35.61
2018-09-19T16:12:06.296Z,36.31
2018-09-19T16:14:35.918Z,36.58
2018-09-19T16:17:05.587Z,36.72
2018-09-19T16:19:35.552Z,38.12
2018-09-19T16:22:06.412Z,38.34
2018-09-19T16:24:36.486Z,40.30
2018-09-19T16:27:06.083Z,39.89
2018-09-19T16:29:36.134Z,38.66
2018-09-19T16:32:06.647Z,41.48
2018-09-19T16:34:39.954Z,42.33
2018-09-19T16:37:09.610Z,42.69
2018-09-19T16:39:39.292Z,42.00
2018-09-19T16:42:09.071Z,42.33
2018-09-19T16:44:42.119Z,43.15
2018-09-19T16:47:11.829Z,44.83
2018-09-19T16:49:41.240Z,44.57
2018-09-19T16:52:11.861Z,44.77
2018-09-19T16:54:41.710Z,45.33
2018-09-19T16:57:11.561Z,46.35
2018-09-19T16:59:42.918Z,46.50
2018-09-19T17:02:13.773Z,46.17
2018-09-19T17:04:43.292Z,46.78
2018-09-19T17:07:13.097Z,46.84
2018-09-19T17:09:42.913Z,47.37
2018-09-19T17:12:12.565Z,47.58
2018-09-19T17:14:42.653Z,47.93
2018-09-19T17:17:12.394Z,48.91
2018-09-19T17:19:42.273Z,49.44
2018-09-19T17:22:13.585Z,49.88
2018-09-19T17:24:43.963Z,50.00
2018-09-19T17:27:14.253Z,49.44
2018-09-19T17:29:43.736Z,49.61
2018-09-19T17:32:14.603Z,50.83
2018-09-19T17:34:45.001Z,51.50
2018-09-19T17:37:15.002Z,51.53
2018-09-19T17:39:44.399Z,51.59
2018-09-19T17:42:14.133Z,52.17
2018-09-19T17:44:43.602Z,52.37
2018-09-19T17:47:14.567Z,52.06
2018-09-19T17:49:44.615Z,51.95
2018-09-19T17:52:14.351Z,53.19
2018-09-19T17:54:44.142Z,53.35
2018-09-19T17:57:13.891Z,54.28
2018-09-19T17:59:43.608Z,54.06
2018-09-19T18:02:13.857Z,54.64
2018-09-19T18:04:44.469Z,55.16
2018-09-19T18:07:14.266Z,55.55
2018-09-19T18:09:44.386Z,55.59
2018-09-19T18:12:14.346Z,55.52
2018-09-19T18:14:44.344Z,55.26
2018-09-19T18:17:14.298Z,55.75
2018-09-19T18:19:46.544Z,55.83
2018-09-19T18:22:16.562Z,56.70
2018-09-19T18:24:46.669Z,57.38
2018-09-19T18:27:17.004Z,57.41
2018-09-19T18:29:46.619Z,57.62
2018-09-19T18:32:16.449Z,57.97
2018-09-19T18:34:46.460Z,58.05
2018-09-19T18:37:16.079Z,58.38
2018-09-19T18:39:48.044Z,59.04
2018-09-19T18:42:17.831Z,59.38
2018-09-19T18:44:47.409Z,59.67
2018-09-19T18:47:16.942Z,59.96
2018-09-19T18:49:46.609Z,60.22
2018-09-19T18:52:16.368Z,60.58
2018-09-19T18:54:46.347Z,60.67
2018-09-19T18:57:16.331Z,60.83
2018-09-19T18:59:45.931Z,61.84
2018-09-19T19:02:15.636Z,61.67
2018-09-19T19:04:46.026Z,62.37
2018-09-19T19:07:16.163Z,62.73
2018-09-19T19:09:45.906Z,63.22
2018-09-19T19:12:15.708Z,63.21
2018-09-19T19:14:45.333Z,63.39
2018-09-19T19:17:15.285Z,63.26
2018-09-19T19:19:48.555Z,63.86
2018-09-19T19:22:18.559Z,64.39
2018-09-19T19:24:51.148Z,64.56
2018-09-19T19:27:21.325Z,64.36
2018-09-19T19:29:51.009Z,64.25
2018-09-19T19:32:20.902Z,64.15
2018-09-19T19:34:50.900Z,64.25
2018-09-19T19:37:20.891Z,64.29
2018-09-19T19:39:50.879Z,64.66
2018-09-19T19:42:21.111Z,65.31
2018-09-19T19:44:51.347Z,65.16
2018-09-19T19:47:21.106Z,64.83
2018-09-19T19:49:50.984Z,65.64
2018-09-19T19:52:21.062Z,65.65
2018-09-19T19:54:50.751Z,66.27
2018-09-19T19:57:20.298Z,66.81
2018-09-19T19:59:50.568Z,67.37
2018-09-19T20:02:20.290Z,68.45
2018-09-19T20:04:50.513Z,68.49
2018-09-19T20:07:20.322Z,69.21
2018-09-19T20:09:50.034Z,69.47
2018-09-19T20:12:21.202Z,69.49
2018-09-19T20:14:51.441Z,69.29
2018-09-19T20:17:21.136Z,69.97
2018-09-19T20:19:50.909Z,70.34
2018-09-19T20:22:21.474Z,70.53
2018-09-19T20:24:52.131Z,70.88
2018-09-19T20:27:21.957Z,71.41
2018-09-19T20:29:53.964Z,71.50
2018-09-19T20:32:23.629Z,72.05
2018-09-19T20:34:53.328Z,71.74
2018-09-19T20:37:22.917Z,72.09
2018-09-19T20:39:54.046Z,71.84
2018-09-19T20:42:53.708Z,71.58
2018-09-19T20:45:26.125Z,71.94
2018-09-19T20:47:57.531Z,72.50
2018-09-19T20:50:27.597Z,72.63
2018-09-19T20:52:57.162Z,72.87
2018-09-19T20:55:27.863Z,73.23
2018-09-19T20:57:57.762Z,73.80
2018-09-19T21:00:27.675Z,74.06
2018-09-19T21:02:57.884Z,73.94
2018-09-19T21:05:27.864Z,74.03
2018-09-19T21:07:57.809Z,74.47
2018-09-19T21:10:42.006Z,74.17
2018-09-19T21:13:18.722Z,74.04
2018-09-19T21:15:48.939Z,74.19
2018-09-19T21:18:20.057Z,74.25
2018-09-19T21:20:51.760Z,73.90
2018-09-19T21:23:21.353Z,74.01
2018-09-19T21:25:52.895Z,73.91
2018-09-19T21:28:24.114Z,74.03
2018-09-19T21:30:53.626Z,74.50
2018-09-19T21:33:24.716Z,74.42
2018-09-19T21:35:54.461Z,73.55
2018-09-19T21:38:23.935Z,74.20
2018-09-19T21:40:58.447Z,74.03
2018-09-19T21:43:28.556Z,74.91
2018-09-19T21:45:59.009Z,74.99
2018-09-19T21:48:28.680Z,75.68
2018-09-19T21:50:58.622Z,75.72
2018-09-19T21:53:28.622Z,76.30
2018-09-19T21:55:58.156Z,76.06
2018-09-19T21:58:35.895Z,76.19
2018-09-19T22:01:09.501Z,76.39
2018-09-19T22:03:42.532Z,76.55
2018-09-19T22:06:12.430Z,77.20
2018-09-19T22:08:44.167Z,77.44
2018-09-19T22:11:13.812Z,77.41
2018-09-19T22:13:43.330Z,77.71
2018-09-19T22:16:13.771Z,77.01
2018-09-19T22:18:43.442Z,77.21
2018-09-19T22:21:13.024Z,77.89
2018-09-19T22:23:46.381Z,78.00
2018-09-19T22:26:15.977Z,78.03
2018-09-19T22:28:45.581Z,77.47
2018-09-19T22:31:15.941Z,78.06
2018-09-19T22:33:45.642Z,77.79
2018-09-19T22:36:15.221Z,78.22
2018-09-19T22:38:44.723Z,77.84
2018-09-19T22:41:14.235Z,77.08
2018-09-19T22:43:43.802Z,77.23
2018-09-19T22:46:13.407Z,77.62
2018-09-19T22:48:42.893Z,78.15
2018-09-19T22:51:13.836Z,78.92
2018-09-19T22:53:47.447Z,79.40
2018-09-19T22:56:17.005Z,79.70
2018-09-19T22:58:46.810Z,80.64
2018-09-19T23:01:16.558Z,80.73
2018-09-19T23:03:46.771Z,81.00
2018-09-19T23:06:16.331Z,80.50
2018-09-19T23:08:47.179Z,80.95
2018-09-19T23:11:16.721Z,81.64
2018-09-19T23:13:46.293Z,81.61
2018-09-19T23:16:21.493Z,81.87
2018-09-19T23:18:51.209Z,81.81
2018-09-19T23:21:20.678Z,81.54
2018-09-19T23:23:50.285Z,82.25
2018-09-19T23:26:24.191Z,82.46
2018-09-19T23:28:54.322Z,82.30
2018-09-19T23:31:24.127Z,82.65
2018-09-19T23:33:55.983Z,82.32
2018-09-19T23:36:25.816Z,82.84
2018-09-19T23:38:55.402Z,82.97
2018-09-19T23:41:25.160Z,83.08
2018-09-19T23:43:56.076Z,82.58
2018-09-19T23:46:33.476Z,83.17
2018-09-19T23:49:03.090Z,82.71
2018-09-19T23:51:33.125Z,82.80
2018-09-19T23:54:03.112Z,83.03
2018-09-19T23:56:32.655Z,83.19
2018-09-19T23:59:02.356Z,83.50
